< < Back
Terminal Aerodrome Forecast


Current Version              Previous Versions:   1  2  3  4  5  6  7  8  9  

Terminal Aerodrome Forecast

297
FTUS42 KCAE 301736
TAFAGS
TAF
KAGS 301736Z 3018/3118 10006KT P6SM SCT040 BKN050
     FM301900 13006KT P6SM VCSH SCT030 BKN060
     FM310100 VRB04KT P6SM SCT050 BKN150
     FM310800 VRB03KT 4SM BR SCT010 BKN015
     FM311400 14006KT P6SM SCT012 BKN040=



Latest METAR

630
SAUS70 KWBC 302200 RRA
MTRAGS
METAR KAGS 302153Z 16012KT 10SM SCT055 30/19 A3006 RMK AO2 SLP176
T03000194


USA.gov is the U.S. government's official web portal to all federal, state and local government web resources and services.